Steelville, Missouri
Current Conditions -  °F | °C
As of 2:53 AM on Saturday 25 Oct 2014 (Local Time) from KVIH Reporting Station
Clear Clear  
Wind Chill: 59°   Ceiling: Unl
Heat Index: 59°   Visibility: 9mi
Dew Point: 57°   Wind: 9mph
Humidity: 93%   Direction: 220°SW
Pressure: 30"   Gusts: NA
Location:  37.97°N, 91.35°W
Report Text: KVIH 250753Z AUTO 22008KT 9SM CLR 15/14 A3000 RMK AO2 SLP154 T01500139
Loading
Personal Weather Stations






























Interactive Weather Map
Tropical Storm Tracking
New forecast layout! Learn more

10-Day Weather Forecast

Advertisements
Track Severe Weather on mobile